Time;durP1;ratioP1;P1;durP2;ratioP2;P2;SDS_P1;SDS_P2;PMS_P1;PMS_P2;Temp;Humidity;BMP_temperature;BMP_pressure;BME280_temperature;BME280_humidity;BME280_pressure;Samples;Min_cycle;Max_cycle;Signal;HPM_P1;HPM_P2
2021/08/09 00:00:07;;;;;;;2.05;1.40;;;;;;;23.51;64.71;99846.75;4262594;33;34479;-85
2021/08/09 00:02:36;;;;;;;1.48;1.23;;;;;;;23.41;64.69;99853.50;4274275;33;34923;-85
2021/08/09 00:05:06;;;;;;;1.73;1.20;;;;;;;23.35;64.52;99864.41;4262734;33;34325;-84
2021/08/09 00:07:34;;;;;;;1.85;1.10;;;;;;;23.25;64.56;99874.59;4250577;33;33343;-84
2021/08/09 00:10:02;;;;;;;3.30;1.33;;;;;;;23.20;64.40;99876.63;4262183;33;33986;-85
2021/08/09 00:12:30;;;;;;;2.90;1.30;;;;;;;23.13;64.12;99882.34;4250410;33;33588;-85
2021/08/09 00:14:57;;;;;;;2.45;1.10;;;;;;;22.90;65.05;99904.66;4262510;33;34519;-85
2021/08/09 00:17:25;;;;;;;3.03;1.30;;;;;;;22.77;65.30;99908.87;4262362;33;34082;-85
2021/08/09 00:19:53;;;;;;;1.02;0.93;;;;;;;22.77;65.65;99908.87;4274062;33;34554;-85
2021/08/09 00:22:20;;;;;;;3.12;1.20;;;;;;;22.61;65.99;99911.38;4250502;33;33631;-85
2021/08/09 00:24:48;;;;;;;5.82;1.65;;;;;;;22.48;66.52;99925.25;4262297;33;33859;-84
2021/08/09 00:27:15;;;;;;;2.00;1.35;;;;;;;22.57;65.71;99917.72;4238571;33;33683;-84
2021/08/09 00:29:43;;;;;;;2.83;1.40;;;;;;;22.59;65.83;99910.56;4262290;33;35405;-84
2021/08/09 00:32:10;;;;;;;2.55;1.40;;;;;;;22.52;65.81;99919.72;4275265;33;34880;-84
2021/08/09 00:34:38;;;;;;;1.15;1.02;;;;;;;22.67;65.60;99915.53;4262505;33;33223;-85
2021/08/09 00:37:06;;;;;;;3.60;1.30;;;;;;;22.79;65.09;99917.59;4262476;33;35058;-85
2021/08/09 00:39:34;;;;;;;1.87;1.20;;;;;;;22.71;64.74;99909.16;4273913;33;34076;-84
2021/08/09 00:42:02;;;;;;;3.87;1.10;;;;;;;22.13;67.07;99924.22;4275123;33;34882;-84
2021/08/09 00:44:29;;;;;;;2.97;1.37;;;;;;;22.13;67.02;99919.75;4273591;33;33803;-84
2021/08/09 00:46:58;;;;;;;2.30;0.95;;;;;;;22.06;66.89;99928.91;4275261;33;34825;-84
2021/08/09 00:49:27;;;;;;;3.47;1.30;;;;;;;21.98;67.20;99920.47;4273665;33;34812;-84
2021/08/09 00:52:02;;;;;;;3.17;1.33;;;;;;;22.00;66.83;99931.00;4260095;33;96645;-85
2021/08/09 00:54:32;;;;;;;2.58;1.35;;;;;;;21.80;67.24;99936.28;4262090;33;34288;-85
2021/08/09 00:57:03;;;;;;;1.70;1.17;;;;;;;21.72;67.46;99941.03;4286089;33;34843;-87
2021/08/09 00:59:31;;;;;;;4.23;1.37;;;;;;;21.89;67.00;99934.13;4262470;33;34549;-87
2021/08/09 01:01:59;;;;;;;5.15;1.00;;;;;;;21.81;66.71;99938.84;4262336;33;34145;-85
2021/08/09 01:04:27;;;;;;;5.90;1.48;;;;;;;21.79;66.89;99938.06;4262332;33;33177;-86
2021/08/09 01:06:56;;;;;;;4.37;1.20;;;;;;;21.81;66.55;99938.84;4274304;33;34020;-87
2021/08/09 01:09:32;;;;;;;1.33;1.15;;;;;;;21.70;66.80;99938.47;4250423;33;34919;-86
2021/08/09 01:12:20;;;;;;;3.33;0.90;;;;;;;21.76;66.43;99942.63;4238794;33;34345;-86
2021/08/09 01:15:10;;;;;;;4.57;1.05;;;;;;;21.54;67.21;99942.69;4262355;33;34370;-86
2021/08/09 01:17:44;;;;;;;1.08;0.85;;;;;;;21.65;66.77;99952.81;4250494;33;33541;-86
2021/08/09 01:20:43;;;;;;;5.50;1.62;;;;;;;21.65;66.64;99956.34;4238696;33;33588;-86
2021/08/09 01:23:11;;;;;;;2.05;1.05;;;;;;;21.67;66.29;99954.47;4250500;33;34506;-86
2021/08/09 01:25:48;;;;;;;3.33;1.08;;;;;;;21.89;65.47;99954.44;4261825;33;32737;-86
2021/08/09 01:28:17;;;;;;;4.95;0.98;;;;;;;22.02;65.12;99955.63;4261934;33;33840;-85
2021/08/09 01:30:47;;;;;;;3.58;0.90;;;;;;;21.89;64.64;99965.91;4273995;33;34891;-85
2021/08/09 01:33:16;;;;;;;2.00;1.08;;;;;;;21.98;64.05;99965.50;4250563;33;34916;-86
2021/08/09 01:35:46;;;;;;;5.40;1.05;;;;;;;21.86;63.96;99955.44;4261860;33;33618;-86
2021/08/09 01:38:15;;;;;;;2.15;0.90;;;;;;;21.46;64.81;99958.91;4250305;33;33916;-85
2021/08/09 01:40:44;;;;;;;1.98;1.08;;;;;;;21.49;64.07;99966.69;4273545;33;35077;-89
2021/08/09 01:43:12;;;;;;;2.55;1.10;;;;;;;21.47;63.66;99970.31;4250331;33;34922;-87
2021/08/09 01:45:40;;;;;;;2.97;1.00;;;;;;;21.55;63.74;99962.94;4250117;33;34038;-86
2021/08/09 01:48:09;;;;;;;2.50;0.90;;;;;;;21.72;63.17;99959.56;4250356;33;33189;-87
2021/08/09 01:50:38;;;;;;;1.90;0.90;;;;;;;21.68;62.99;99945.59;4262253;33;33815;-86
2021/08/09 01:53:07;;;;;;;4.93;1.15;;;;;;;21.72;62.21;99952.50;4274163;33;34041;-86
2021/08/09 01:55:35;;;;;;;1.92;1.12;;;;;;;21.57;62.52;99950.50;4262078;33;33109;-86
2021/08/09 01:58:04;;;;;;;2.17;1.10;;;;;;;21.55;62.77;99947.94;4250134;33;33687;-88
2021/08/09 02:00:32;;;;;;;1.55;0.80;;;;;;;21.68;62.49;99958.81;4261679;33;33905;-87
2021/08/09 02:03:02;;;;;;;5.75;0.98;;;;;;;21.71;63.18;99964.00;4273483;33;33688;-88
2021/08/09 02:05:30;;;;;;;1.60;0.98;;;;;;;21.76;62.92;99969.97;4250252;33;33801;-87
2021/08/09 02:07:58;;;;;;;1.73;0.80;;;;;;;21.71;62.53;99969.28;4272626;33;32910;-87
2021/08/09 02:10:29;;;;;;;3.95;1.15;;;;;;;21.67;61.90;99975.66;4238586;33;33648;-87
2021/08/09 02:13:17;;;;;;;;;;;;;;;21.77;61.33;99977.00;4262149;33;34234;-87
2021/08/09 02:16:03;;;;;;;1.75;0.90;;;;;;;21.75;61.86;99980.63;4273246;33;33628;-87
2021/08/09 02:19:06;;;;;;;1.90;1.00;;;;;;;21.61;61.84;99990.94;4249945;33;34536;-87
2021/08/09 02:22:00;;;;;;;3.25;0.95;;;;;;;21.71;61.79;99985.19;4204159;34;34019;-88
2021/08/09 02:24:33;;;;;;;2.10;1.33;;;;;;;21.78;60.42;99999.88;4261933;33;33605;-87
2021/08/09 02:27:21;;;;;;;3.67;1.63;;;;;;;21.74;61.54;99997.41;4272878;33;33854;-87
2021/08/09 02:29:51;;;;;;;1.65;1.00;;;;;;;21.63;61.81;100010.25;4249799;33;33626;-87
2021/08/09 02:32:22;;;;;;;1.92;1.00;;;;;;;21.68;61.73;100017.06;4238371;33;34355;-87
2021/08/09 02:34:51;;;;;;;1.98;0.88;;;;;;;21.77;61.59;100006.13;4249613;33;34368;-87
2021/08/09 02:37:20;;;;;;;2.75;1.17;;;;;;;21.68;61.30;100013.59;4272864;33;31975;-87
2021/08/09 02:39:48;;;;;;;1.17;0.70;;;;;;;21.77;61.10;100008.75;4273279;33;33514;-87
2021/08/09 02:42:16;;;;;;;2.22;1.05;;;;;;;21.76;61.26;100022.03;4249691;33;34299;-87
2021/08/09 02:44:44;;;;;;;3.00;1.00;;;;;;;21.75;60.38;100021.16;4261487;33;34128;-88
2021/08/09 02:47:13;;;;;;;3.72;0.90;;;;;;;21.68;60.62;100030.28;4249450;33;33931;-87
2021/08/09 02:49:46;;;;;;;1.15;0.70;;;;;;;21.54;58.84;100032.66;4272827;33;34790;-87
2021/08/09 02:52:16;;;;;;;4.70;0.88;;;;;;;21.42;60.57;100035.81;4249863;33;34061;-87
2021/08/09 02:54:45;;;;;;;3.12;1.00;;;;;;;21.67;60.45;100033.87;4249399;33;34221;-87
2021/08/09 02:57:14;;;;;;;1.62;0.85;;;;;;;21.67;60.95;100044.47;4284713;33;32669;-87
2021/08/09 02:59:42;;;;;;;1.27;0.88;;;;;;;21.69;59.85;100041.75;4261118;33;32993;-87
2021/08/09 03:02:12;;;;;;;1.70;1.10;;;;;;;21.76;59.79;100036.16;4249422;33;34020;-87
2021/08/09 03:04:41;;;;;;;1.48;1.08;;;;;;;21.77;58.57;100035.22;4272597;33;34345;-87
2021/08/09 03:07:10;;;;;;;1.83;0.90;;;;;;;21.64;59.46;100033.13;4261064;33;33513;-86
2021/08/09 03:09:38;;;;;;;5.45;1.25;;;;;;;21.63;59.81;100027.00;4249259;33;33863;-87
2021/08/09 03:12:06;;;;;;;1.37;1.00;;;;;;;21.63;59.98;100026.16;4248980;33;34942;-87
2021/08/09 03:14:34;;;;;;;1.55;0.80;;;;;;;21.38;60.27;100029.78;4260969;33;34873;-87
2021/08/09 03:17:03;;;;;;;2.75;0.82;;;;;;;21.41;59.65;100034.97;4272443;33;33661;-87
2021/08/09 03:19:31;;;;;;;1.17;0.82;;;;;;;21.21;60.63;100039.31;4238423;33;33475;-87
2021/08/09 03:22:00;;;;;;;6.22;1.15;;;;;;;21.33;59.91;100039.69;4274636;33;34985;-86
2021/08/09 03:24:29;;;;;;;1.42;0.90;;;;;;;21.23;59.92;100048.03;4274692;33;33567;-87
2021/08/09 03:26:59;;;;;;;1.50;0.95;;;;;;;20.99;60.90;100044.53;4262694;33;33563;-87
2021/08/09 03:29:26;;;;;;;1.15;0.90;;;;;;;21.02;60.78;100055.00;4274554;33;34782;-87
2021/08/09 03:31:54;;;;;;;1.83;1.10;;;;;;;20.88;61.24;100047.63;4262779;33;34581;-87
2021/08/09 03:34:22;;;;;;;1.95;1.25;;;;;;;20.82;61.28;100049.63;4262671;33;34945;-86
2021/08/09 03:36:52;;;;;;;2.45;1.02;;;;;;;20.99;60.58;100049.00;4262724;33;33013;-87
2021/08/09 03:39:20;;;;;;;3.62;1.12;;;;;;;20.76;61.10;100042.78;4251063;33;33864;-87
2021/08/09 03:41:48;;;;;;;1.40;1.10;;;;;;;20.80;61.10;100039.09;4274475;33;33924;-88
2021/08/09 03:44:17;;;;;;;2.12;0.93;;;;;;;20.76;60.71;100048.06;4274432;33;33684;-87
2021/08/09 03:46:45;;;;;;;4.25;1.25;;;;;;;20.59;61.14;100042.53;4251278;33;33099;-87
2021/08/09 03:49:13;;;;;;;1.45;0.90;;;;;;;20.44;61.93;100051.06;4262685;33;33909;-88
2021/08/09 03:51:41;;;;;;;2.30;1.27;;;;;;;20.57;60.85;100048.81;4262682;33;35495;-87
2021/08/09 03:54:09;;;;;;;2.85;1.17;;;;;;;20.33;62.43;100047.91;4250724;33;33591;-87
2021/08/09 03:56:37;;;;;;;2.47;1.00;;;;;;;20.36;61.73;100050.47;4274109;33;33810;-87
2021/08/09 03:59:05;;;;;;;2.20;1.00;;;;;;;20.32;62.12;100046.22;4250913;33;33453;-86
2021/08/09 04:01:38;;;;;;;1.95;1.37;;;;;;;20.41;62.36;100040.59;4250799;33;34000;-87
2021/08/09 04:04:06;;;;;;;1.40;1.10;;;;;;;20.50;61.76;100040.25;4251173;33;33558;-87
2021/08/09 04:06:34;;;;;;;2.12;1.10;;;;;;;20.40;62.11;100043.28;4239397;33;32707;-86
2021/08/09 04:09:02;;;;;;;4.65;1.17;;;;;;;20.64;61.45;100051.16;4285986;33;34027;-86
2021/08/09 04:11:32;;;;;;;1.75;1.02;;;;;;;20.43;62.07;100061.66;4262525;33;33824;-87
2021/08/09 04:14:01;;;;;;;2.87;1.00;;;;;;;20.61;62.24;100056.56;4274099;33;34360;-86
2021/08/09 04:16:29;;;;;;;3.10;1.80;;;;;;;20.64;61.63;100067.03;4250876;33;33689;-86
2021/08/09 04:18:57;;;;;;;1.60;1.10;;;;;;;20.82;60.87;100062.84;4239132;33;33547;-86
2021/08/09 04:21:25;;;;;;;1.48;1.10;;;;;;;20.68;61.42;100076.56;4262467;33;34635;-87
2021/08/09 04:23:53;;;;;;;4.07;1.10;;;;;;;20.91;60.02;100087.16;4250558;33;34444;-87
2021/08/09 04:26:23;;;;;;;2.90;0.80;;;;;;;20.89;59.72;100090.78;4262482;33;33975;-87
2021/08/09 04:28:51;;;;;;;2.78;1.27;;;;;;;20.83;61.09;100085.72;4274337;33;33988;-87
2021/08/09 04:31:18;;;;;;;1.48;0.95;;;;;;;20.97;60.40;100083.41;4262277;33;33878;-86
2021/08/09 04:33:48;;;;;;;1.75;1.08;;;;;;;21.00;60.80;100087.72;4262586;33;34204;-86
2021/08/09 04:36:16;;;;;;;2.12;1.10;;;;;;;21.04;59.37;100086.69;4250581;33;33675;-86
2021/08/09 04:38:43;;;;;;;2.65;1.23;;;;;;;21.12;59.70;100084.63;4250459;33;34311;-87
2021/08/09 04:41:12;;;;;;;2.05;1.10;;;;;;;21.04;59.53;100089.34;4250594;33;34357;-87
2021/08/09 04:43:41;;;;;;;2.25;1.08;;;;;;;21.05;59.50;100093.72;4250497;33;34580;-87
2021/08/09 04:46:09;;;;;;;1.77;1.15;;;;;;;21.17;59.87;100101.19;4250237;33;33880;-87
2021/08/09 04:48:37;;;;;;;3.33;1.10;;;;;;;21.22;59.16;100088.66;4262101;33;34030;-86
2021/08/09 04:51:05;;;;;;;2.47;1.08;;;;;;;21.35;59.92;100081.94;4262094;33;34029;-86
2021/08/09 04:53:33;;;;;;;2.65;1.00;;;;;;;21.42;59.50;100096.66;4285601;33;33532;-86
2021/08/09 04:56:01;;;;;;;1.92;1.02;;;;;;;21.31;58.94;100083.00;4274080;33;32744;-86
2021/08/09 04:58:31;;;;;;;2.83;1.33;;;;;;;21.44;58.69;100085.09;4262429;33;33956;-85
2021/08/09 05:01:00;;;;;;;1.92;0.88;;;;;;;21.61;57.59;100095.00;4285593;33;34939;-85
2021/08/09 05:03:36;;;;;;;4.90;1.00;;;;;;;21.74;58.11;100092.72;4274140;33;34038;-85
2021/08/09 05:06:07;;;;;;;1.55;1.05;;;;;;;21.87;57.94;100091.34;4261899;33;32949;-86
2021/08/09 05:08:34;;;;;;;2.05;1.00;;;;;;;21.76;58.94;100082.94;4273845;33;34006;-85
2021/08/09 05:11:02;;;;;;;1.48;0.98;;;;;;;21.50;59.00;100084.87;4285786;33;33904;-86
2021/08/09 05:13:48;;;;;;;1.92;1.02;;;;;;;21.40;59.37;100080.84;4264633;33;35014;-86
2021/08/09 05:16:16;;;;;;;1.37;0.95;;;;;;;21.39;59.14;100091.50;4262435;33;33724;-86
2021/08/09 05:18:44;;;;;;;3.12;1.05;;;;;;;21.40;58.79;100079.97;4262196;33;33913;-88
2021/08/09 05:21:15;;;;;;;2.60;1.23;;;;;;;21.72;58.31;100084.84;4262003;33;33990;-87
2021/08/09 05:23:42;;;;;;;1.55;1.00;;;;;;;21.78;59.60;100089.88;4262322;33;34249;-85
2021/08/09 05:26:10;;;;;;;1.80;1.25;;;;;;;22.13;57.29;100093.75;4273575;33;34254;-86
2021/08/09 05:28:38;;;;;;;2.55;1.00;;;;;;;22.22;57.45;100090.72;4261918;33;33996;-87
2021/08/09 05:31:06;;;;;;;3.35;1.02;;;;;;;22.27;56.41;100087.87;4261877;33;34559;-86
2021/08/09 05:33:34;;;;;;;1.60;0.90;;;;;;;22.41;57.06;100090.78;4273593;33;33816;-86
2021/08/09 05:36:03;;;;;;;1.15;1.05;;;;;;;22.04;57.70;100089.69;4273724;33;33675;-86
2021/08/09 05:38:31;;;;;;;1.65;1.12;;;;;;;22.31;57.51;100084.13;4261969;33;33775;-86
2021/08/09 05:41:02;;;;;;;2.60;1.30;;;;;;;22.46;56.04;100089.66;4261602;33;34799;-86
2021/08/09 05:43:30;;;;;;;1.58;1.20;;;;;;;22.51;56.54;100092.94;4261409;33;35007;-85
2021/08/09 05:45:58;;;;;;;2.85;1.30;;;;;;;22.37;56.89;100102.44;4238247;33;32863;-86
2021/08/09 05:48:27;;;;;;;2.50;1.30;;;;;;;22.53;57.01;100103.50;4249801;33;34643;-85
2021/08/09 05:50:55;;;;;;;2.95;0.85;;;;;;;22.43;57.83;100105.69;4261707;33;34498;-85
2021/08/09 05:53:27;;;;;;;3.33;0.98;;;;;;;22.20;57.64;100113.75;4285270;33;34820;-86
2021/08/09 05:55:54;;;;;;;2.10;1.15;;;;;;;22.41;57.63;100102.25;4273098;33;33718;-85
2021/08/09 05:58:22;;;;;;;2.42;1.30;;;;;;;22.17;58.08;100114.75;4261971;33;34211;-85
2021/08/09 06:00:50;;;;;;;2.28;1.17;;;;;;;22.30;57.53;100108.94;4273672;33;34672;-86
2021/08/09 06:03:22;;;;;;;2.50;1.05;;;;;;;22.42;57.06;100105.72;4273405;33;34562;-86
2021/08/09 06:05:52;;;;;;;3.67;1.33;;;;;;;22.36;57.72;100106.88;4273870;33;33940;-85
2021/08/09 06:08:21;;;;;;;9.35;1.48;;;;;;;22.34;57.28;100100.78;4273778;33;33329;-86
2021/08/09 06:10:49;;;;;;;2.30;1.10;;;;;;;22.27;57.27;100095.81;4261394;33;33894;-85
2021/08/09 06:13:17;;;;;;;2.45;1.10;;;;;;;22.75;55.86;100109.56;4273600;33;34310;-85
2021/08/09 06:15:45;;;;;;;1.98;1.02;;;;;;;22.81;56.05;100127.88;4284952;33;33601;-85
2021/08/09 06:18:13;;;;;;;1.75;0.90;;;;;;;23.05;56.46;100125.91;4285154;33;33263;-85
2021/08/09 06:20:40;;;;;;;1.45;0.95;;;;;;;23.16;55.36;100120.94;4261552;33;34397;-85
2021/08/09 06:23:09;;;;;;;1.67;1.00;;;;;;;22.82;55.14;100124.31;4261750;33;34177;-85
2021/08/09 06:25:36;;;;;;;3.08;1.10;;;;;;;22.69;56.49;100120.47;4273106;33;33685;-86
2021/08/09 06:28:04;;;;;;;1.45;0.80;;;;;;;22.96;55.78;100121.87;4261379;33;33490;-85
2021/08/09 06:30:32;;;;;;;1.62;1.10;;;;;;;23.11;55.26;100115.84;4261379;33;34331;-86
2021/08/09 06:33:00;;;;;;;1.98;1.10;;;;;;;23.37;54.77;100128.81;4261721;33;34829;-86
2021/08/09 06:35:28;;;;;;;2.40;0.70;;;;;;;23.51;54.15;100126.34;4238350;33;34196;-86
2021/08/09 06:37:56;;;;;;;1.25;0.90;;;;;;;23.46;54.22;100132.84;4249475;33;33530;-85
2021/08/09 06:40:23;;;;;;;1.75;1.00;;;;;;;23.66;52.74;100131.84;4261236;33;34699;-86
2021/08/09 06:42:51;;;;;;;6.12;1.10;;;;;;;23.52;54.08;100130.75;4261362;33;33631;-86
2021/08/09 06:45:19;;;;;;;3.65;1.00;;;;;;;23.73;52.93;100134.16;4249483;33;32915;-85
2021/08/09 06:47:47;;;;;;;3.17;1.30;;;;;;;23.75;53.09;100134.09;4261335;33;34197;-87
2021/08/09 06:50:15;;;;;;;1.87;0.95;;;;;;;23.75;52.54;100128.78;4273121;33;34304;-86
2021/08/09 06:52:43;;;;;;;1.58;1.20;;;;;;;23.76;52.66;100139.31;4273509;33;33905;-86
2021/08/09 06:55:11;;;;;;;1.92;1.20;;;;;;;23.88;53.08;100132.53;4274834;33;33119;-85
2021/08/09 06:57:39;;;;;;;2.45;1.25;;;;;;;23.90;52.56;100123.56;4262780;33;33022;-86
2021/08/09 07:00:07;;;;;;;1.60;0.95;;;;;;;24.09;52.45;100124.41;4286559;33;34265;-86
2021/08/09 07:02:35;;;;;;;2.78;1.20;;;;;;;24.23;52.09;100126.34;4262600;33;35777;-85
2021/08/09 07:05:03;;;;;;;1.35;0.90;;;;;;;24.71;51.49;100118.50;4251182;33;32966;-86
2021/08/09 07:07:31;;;;;;;1.77;1.08;;;;;;;25.00;51.70;100119.63;4262821;33;33997;-86
2021/08/09 07:09:59;;;;;;;1.73;1.00;;;;;;;24.78;50.62;100129.69;4286430;33;35424;-86
2021/08/09 07:12:30;;;;;;;2.45;1.17;;;;;;;25.21;50.41;100128.25;4274067;33;34354;-86
2021/08/09 07:14:58;;;;;;;1.67;1.00;;;;;;;25.31;48.60;100118.81;4262724;33;33513;-86
2021/08/09 07:17:25;;;;;;;1.62;1.02;;;;;;;25.33;48.46;100120.44;4262625;33;33465;-86
2021/08/09 07:19:53;;;;;;;1.95;1.00;;;;;;;25.39;48.83;100119.22;4275764;33;34649;-86
2021/08/09 07:22:21;;;;;;;3.70;0.90;;;;;;;25.32;48.86;100125.84;4274184;33;33464;-85
2021/08/09 07:24:49;;;;;;;2.25;1.00;;;;;;;25.59;48.86;100119.03;4250860;33;32793;-85
2021/08/09 07:27:16;;;;;;;1.75;1.05;;;;;;;25.52;48.06;100125.63;4239112;33;33323;-85
2021/08/09 07:29:44;;;;;;;1.48;1.00;;;;;;;25.54;49.25;100121.09;4262732;33;35454;-86
2021/08/09 07:32:12;;;;;;;3.87;1.08;;;;;;;25.41;47.99;100117.38;4250870;33;32837;-86
2021/08/09 07:34:39;;;;;;;1.42;0.95;;;;;;;25.60;49.23;100118.09;4262626;33;33658;-86
2021/08/09 07:37:08;;;;;;;1.12;0.82;;;;;;;25.93;48.05;100118.81;4251077;33;33375;-86
2021/08/09 07:39:36;;;;;;;2.12;0.82;;;;;;;25.94;47.66;100117.84;4274497;33;35292;-85
2021/08/09 07:42:04;;;;;;;1.55;0.90;;;;;;;25.94;48.42;100122.31;4286364;33;34472;-85
2021/08/09 07:44:52;;;;;;;1.17;0.77;;;;;;;26.00;47.56;100124.66;4274979;33;33814;-85
2021/08/09 07:47:20;;;;;;;1.40;1.00;;;;;;;26.22;46.93;100118.94;4250928;33;34279;-86
2021/08/09 07:49:48;;;;;;;4.00;0.90;;;;;;;26.06;47.28;100125.13;4274452;33;34757;-85
2021/08/09 07:52:16;;;;;;;2.97;1.10;;;;;;;26.24;46.61;100117.91;4262517;33;34940;-86
2021/08/09 07:54:43;;;;;;;1.48;0.95;;;;;;;26.29;46.57;100114.97;4262793;33;33495;-86
2021/08/09 07:57:11;;;;;;;2.78;1.25;;;;;;;26.25;47.35;100108.06;4262439;33;33456;-86
2021/08/09 07:59:39;;;;;;;3.90;1.02;;;;;;;26.56;46.56;100116.81;4250931;33;34554;-87
2021/08/09 08:02:07;;;;;;;1.58;0.90;;;;;;;26.65;46.23;100115.37;4274451;33;34115;-86
2021/08/09 08:04:35;;;;;;;2.30;1.37;;;;;;;26.49;46.23;100117.28;4250359;33;34211;-86
2021/08/09 08:07:04;;;;;;;1.98;1.15;;;;;;;26.74;43.98;100123.69;4262363;33;33961;-86
2021/08/09 08:09:31;;;;;;;3.17;0.93;;;;;;;26.48;45.67;100127.09;4250666;33;34804;-86
2021/08/09 08:12:01;;;;;;;2.62;1.02;;;;;;;26.52;44.09;100127.78;4274273;33;34284;-87
2021/08/09 08:14:30;;;;;;;1.45;0.90;;;;;;;26.31;45.54;100137.06;4262408;33;33671;-87
2021/08/09 08:16:58;;;;;;;1.00;0.80;;;;;;;26.43;46.30;100128.34;4286072;33;33353;-86
2021/08/09 08:19:26;;;;;;;5.90;1.20;;;;;;;26.50;45.26;100129.69;4262486;33;34665;-86
2021/08/09 08:21:54;;;;;;;2.15;1.17;;;;;;;26.67;46.43;100135.69;4250456;33;33406;-87
2021/08/09 08:24:22;;;;;;;1.45;1.15;;;;;;;26.85;45.63;100141.75;4286139;33;34235;-87
2021/08/09 08:26:50;;;;;;;3.47;1.10;;;;;;;27.09;45.93;100145.59;4285780;33;33715;-87
2021/08/09 08:29:22;;;;;;;;;;;;;;;27.11;44.72;100148.16;4273678;33;33928;-87
2021/08/09 08:31:49;;;;;;;1.23;0.90;;;;;;;27.21;44.23;100154.63;4274066;33;33646;-87
2021/08/09 08:34:17;;;;;;;1.50;1.05;;;;;;;27.21;44.12;100160.84;4250687;33;33005;-87
2021/08/09 08:36:45;;;;;;;1.23;0.93;;;;;;;27.18;44.36;100160.16;4274087;33;34718;-86
2021/08/09 08:39:13;;;;;;;2.87;1.23;;;;;;;27.34;42.54;100161.78;4250428;33;33992;-87
2021/08/09 08:41:43;;;;;;;1.77;0.90;;;;;;;27.23;45.44;100158.94;4262559;33;34296;-87
2021/08/09 08:44:19;;;;;;;1.33;0.98;;;;;;;27.27;44.63;100165.78;4273803;33;32862;-87
2021/08/09 08:46:48;;;;;;;2.58;1.37;;;;;;;27.57;43.86;100175.53;4262362;33;34351;-87
2021/08/09 08:49:16;;;;;;;2.20;1.10;;;;;;;27.71;44.12;100171.00;4262560;33;34477;-87
2021/08/09 08:51:46;;;;;;;4.45;1.05;;;;;;;27.84;43.45;100177.25;4262357;33;34130;-87
2021/08/09 08:54:14;;;;;;;3.72;1.12;;;;;;;27.84;41.46;100177.25;4262320;33;33147;-88
2021/08/09 08:56:43;;;;;;;3.72;1.10;;;;;;;27.90;43.75;100182.22;4273839;33;34078;-89
2021/08/09 08:59:18;;;;;;;2.97;1.08;;;;;;;28.04;42.70;100184.00;4262155;33;34684;-87
2021/08/09 09:01:48;;;;;;;2.37;1.20;;;;;;;28.15;42.41;100178.81;4262863;33;34565;-88
2021/08/09 09:04:21;;;;;;;4.12;0.98;;;;;;;28.10;42.73;100180.91;4273706;33;32785;-87
2021/08/09 09:07:00;;;;;;;2.75;1.02;;;;;;;28.33;43.08;100174.91;4273744;33;33563;-88
2021/08/09 09:09:32;;;;;;;1.50;0.80;;;;;;;28.35;42.54;100175.66;4262226;33;34570;-87
2021/08/09 09:12:19;;;;;;;1.73;0.88;;;;;;;28.58;42.71;100184.78;4262516;33;34217;-88
2021/08/09 09:15:01;;;;;;;1.40;1.08;;;;;;;28.63;39.63;100180.88;4250454;33;33082;-88
2021/08/09 09:17:34;;;;;;;1.80;0.90;;;;;;;28.63;41.09;100178.22;4261228;33;34057;-88
2021/08/09 09:20:22;;;;;;;3.03;1.30;;;;;;;28.80;40.61;100180.59;4273869;33;35167;-87
2021/08/09 09:22:51;;;;;;;3.70;1.12;;;;;;;29.01;40.49;100180.91;4273610;33;34633;-87
2021/08/09 09:25:32;;;;;;;2.28;0.90;;;;;;;28.99;40.45;100180.16;4273877;33;32886;-87
2021/08/09 09:28:23;;;;;;;1.42;1.00;;;;;;;29.18;39.41;100174.38;4273856;33;34740;-87
2021/08/09 09:30:51;;;;;;;4.62;1.37;;;;;;;29.26;39.39;100185.44;4273933;33;34092;-88
2021/08/09 09:33:19;;;;;;;2.65;1.02;;;;;;;29.26;38.42;100180.91;4261924;33;34886;-88
2021/08/09 09:35:49;;;;;;;2.47;1.08;;;;;;;29.09;39.97;100180.38;4250212;33;32351;-88
2021/08/09 09:38:18;;;;;;;3.40;1.10;;;;;;;29.34;39.64;100180.38;4238916;33;34372;-88
2021/08/09 09:40:46;;;;;;;2.65;1.17;;;;;;;29.23;39.99;100182.97;4238732;33;35571;-88
2021/08/09 09:43:21;;;;;;;1.65;1.12;;;;;;;29.23;38.94;100180.28;4261897;33;34806;-88
2021/08/09 09:45:54;;;;;;;4.43;1.37;;;;;;;29.34;39.09;100175.87;4261940;33;33547;-88
2021/08/09 09:48:39;;;;;;;2.17;1.10;;;;;;;29.56;38.41;100175.19;4261980;33;33998;-88
2021/08/09 09:51:10;;;;;;;2.50;1.00;;;;;;;29.38;38.79;100181.88;4261770;33;34571;-88
2021/08/09 09:53:38;;;;;;;2.20;1.10;;;;;;;29.70;37.98;100187.59;4261494;33;34898;-87
2021/08/09 09:56:06;;;;;;;2.00;1.02;;;;;;;29.78;38.21;100186.13;4261991;33;33270;-87
2021/08/09 09:58:35;;;;;;;3.20;1.33;;;;;;;29.68;39.09;100187.72;4285498;33;33379;-87
2021/08/09 10:01:04;;;;;;;2.12;0.82;;;;;;;29.76;37.75;100188.06;4273485;33;34007;-87
2021/08/09 10:03:34;;;;;;;3.20;1.10;;;;;;;29.94;37.71;100186.69;4238486;33;34326;-87
2021/08/09 10:06:02;;;;;;;2.65;1.12;;;;;;;29.60;40.22;100187.41;4238473;33;33178;-88
2021/08/09 10:08:41;;;;;;;1.90;1.10;;;;;;;29.61;39.28;100189.13;4261601;33;33962;-87
2021/08/09 10:11:09;;;;;;;4.03;1.17;;;;;;;29.72;39.61;100191.00;4249976;33;35786;-87
2021/08/09 10:13:38;;;;;;;1.40;1.02;;;;;;;29.90;38.45;100192.41;4249875;33;34572;-87
2021/08/09 10:16:08;;;;;;;1.42;1.00;;;;;;;29.59;39.26;100190.19;4273295;33;33834;-88
2021/08/09 10:18:39;;;;;;;2.72;1.25;;;;;;;29.61;38.30;100194.47;4249766;33;34494;-88
2021/08/09 10:21:07;;;;;;;1.77;0.98;;;;;;;29.90;37.88;100189.72;4273210;33;34079;-88
2021/08/09 10:23:39;;;;;;;2.72;1.33;;;;;;;30.06;36.10;100193.84;4261921;33;34171;-86
2021/08/09 10:26:12;;;;;;;1.58;0.90;;;;;;;29.99;37.62;100189.03;4261212;33;32854;-87
2021/08/09 10:28:52;;;;;;;1.45;1.02;;;;;;;29.82;39.01;100187.59;4272864;33;33631;-87
2021/08/09 10:31:40;;;;;;;1.80;1.12;;;;;;;29.65;37.90;100187.94;4249479;33;33681;-88
2021/08/09 10:34:09;;;;;;;1.02;0.93;;;;;;;29.36;39.16;100194.50;4261536;33;34257;-88
2021/08/09 10:37:15;;;;;;;4.80;1.30;;;;;;;29.53;39.24;100196.84;4261426;33;33424;-88
2021/08/09 10:39:45;;;;;;;1.15;0.90;;;;;;;29.68;36.53;100193.06;4249454;33;33300;-88
2021/08/09 10:42:32;;;;;;;2.05;1.00;;;;;;;29.97;36.33;100191.84;4261287;33;33981;-87
2021/08/09 10:45:01;;;;;;;2.20;1.60;;;;;;;30.02;36.46;100186.97;4274179;33;34396;-88
2021/08/09 10:47:44;;;;;;;2.25;0.98;;;;;;;29.85;35.66;100187.38;4272988;33;34268;-88
2021/08/09 10:50:24;;;;;;;2.50;1.08;;;;;;;30.17;35.72;100185.81;4261219;33;33688;-88
2021/08/09 10:52:53;;;;;;;1.77;1.05;;;;;;;30.48;35.33;100180.84;4261084;33;34640;-87
2021/08/09 10:55:30;;;;;;;1.33;0.95;;;;;;;30.48;36.33;100180.84;4272866;33;34236;-88
2021/08/09 10:57:58;;;;;;;3.67;1.27;;;;;;;30.85;36.15;100171.69;4272796;33;32874;-88
2021/08/09 11:00:38;;;;;;;1.80;1.00;;;;;;;30.33;38.36;100176.63;4249163;33;33277;-88
2021/08/09 11:03:11;;;;;;;1.48;1.00;;;;;;;30.37;37.89;100181.69;4249369;33;34973;-88
2021/08/09 11:05:39;;;;;;;1.67;1.25;;;;;;;30.68;36.01;100178.38;4261238;33;34033;-88
2021/08/09 11:08:13;;;;;;;2.20;1.05;;;;;;;30.71;37.18;100175.44;4249391;33;33712;-87
2021/08/09 11:11:02;;;;;;;1.92;1.27;;;;;;;30.95;34.38;100180.78;4261218;33;33628;-88
2021/08/09 11:13:53;;;;;;;1.50;1.00;;;;;;;30.78;34.85;100167.78;4260750;33;35537;-88
2021/08/09 11:16:33;;;;;;;1.23;0.90;;;;;;;30.46;34.72;100178.31;4249119;33;33750;-88
2021/08/09 11:19:01;;;;;;;1.70;1.12;;;;;;;30.56;34.26;100178.44;4261198;33;33651;-88
2021/08/09 11:21:29;;;;;;;2.55;0.82;;;;;;;30.75;33.51;100173.38;4284261;33;33894;-88
2021/08/09 11:23:56;;;;;;;2.10;1.20;;;;;;;30.79;34.57;100170.34;4284382;33;34962;-88
2021/08/09 11:26:26;;;;;;;1.35;0.95;;;;;;;30.76;34.58;100167.88;4272644;33;34830;-88
2021/08/09 11:29:01;;;;;;;1.10;0.95;;;;;;;30.75;34.98;100171.56;4272645;33;33440;-88
2021/08/09 11:31:46;;;;;;;1.37;0.90;;;;;;;30.91;33.06;100173.06;4260467;33;33606;-89
2021/08/09 11:34:14;;;;;;;1.98;1.00;;;;;;;31.13;32.01;100173.97;4272287;33;34424;-87
2021/08/09 11:36:42;;;;;;;1.83;1.10;;;;;;;30.82;34.28;100163.88;4248776;33;33381;-87
2021/08/09 11:39:13;;;;;;;1.60;1.00;;;;;;;30.83;34.18;100168.28;4271793;33;33747;-87
2021/08/09 11:41:54;;;;;;;1.52;1.00;;;;;;;30.64;34.27;100163.44;4274238;33;34341;-88